Latest Weather Observations for Strahan

IDT60801

Issued at 10:51 am EDT Wednesday 20 February 2019 (issued every 10 minutes, with the page automatically refreshed every 10 minutes)

About weather observations | Map of weather stations | Latest weather observations for TAS | Other Formats
Station Details ID: 097072 Name: STRAHAN AERODROME Lat: -42.16 Lon: 145.29 Height: 21.0 m
Data from the previous 72 hours. | See also: Recent months at Strahan
Date/Time
EDT
Temp
°C
App
Temp
°C
Dew
Point
°C
Rel
Hum
%
Delta-T
°C
Wind Press
QNH
hPa
Press
MSL
hPa
Rain since
9am
mm
Dir  Spd
km/h
Gust
km/h
Spd
kts
Gust
kts
20/10:33am 15.2 11.9 13.9 92 0.7 WNW 24 39 13 21 1010.0 1010.0 1.0
20/10:30am 14.4 10.4 13.0 91 0.8 WNW 26 41 14 22 1009.9 1009.9 1.0
20/10:15am 14.1 8.0 11.8 86 1.2 WNW 35 50 19 27 1009.9 1009.9 1.0
20/10:00am 15.8 10.6 12.7 82 1.7 WNW 32 46 17 25 1009.6 1009.6 0.4
20/09:38am 14.5 10.9 13.2 92 0.7 NW 24 32 13 17 1009.5 1009.5 0.4
20/09:32am 13.6 8.5 12.0 90 0.9 NW 30 48 16 26 1009.5 1009.5 0.4
20/09:30am 13.6 8.1 12.0 90 0.9 WNW 32 48 17 26 1009.5 1009.5 0.4
20/09:22am 13.7 7.3 12.1 90 0.9 WNW 37 52 20 28 1009.5 1009.5 0.4
20/09:00am 14.0 9.1 12.7 92 0.7 NW 30 37 16 20 1009.2 1009.2 2.4
20/08:52am 13.8 9.0 12.9 94 0.5 NW 30 39 16 21 1009.2 1009.2 2.4
20/08:36am 13.3 8.4 12.4 94 0.5 WNW 30 44 16 24 1009.2 1009.2 2.2
20/08:32am 13.1 7.6 12.0 93 0.6 WNW 32 50 17 27 1009.1 1009.1 2.2
20/08:30am 13.0 7.3 11.9 93 0.6 WNW 33 50 18 27 1009.0 1009.0 2.2
20/08:23am 13.0 7.2 11.6 91 0.7 NW 33 50 18 27 1009.0 1009.0 2.0
20/08:21am 13.5 8.2 12.4 93 0.6 NW 32 43 17 23 1009.0 1009.0 1.8
20/08:00am 13.6 8.2 12.2 91 0.8 NW 32 39 17 21 1008.8 1008.8 1.4
20/07:30am 13.8 9.3 11.3 85 1.3 NNW 26 37 14 20 1008.5 1008.5 1.4
20/07:00am 13.6 8.8 11.5 87 1.1 NW 28 37 15 20 1008.4 1008.4 1.4
20/06:40am 12.7 9.5 11.3 91 0.7 NNW 19 24 10 13 1008.6 1008.6 1.2
20/06:30am 12.5 7.8 10.7 89 0.9 NW 26 37 14 20 1008.6 1008.6 1.2
20/06:22am 12.9 8.8 11.6 92 0.7 NW 24 37 13 20 1008.7 1008.7 1.2
20/06:00am 12.8 9.1 11.4 91 0.7 NW 22 30 12 16 1008.7 1008.7 1.0
20/05:50am 12.6 8.1 11.3 92 0.7 NW 26 39 14 21 1008.7 1008.7 1.0
20/05:46am 12.6 6.9 11.3 92 0.7 NW 32 50 17 27 1008.8 1008.8 1.0
20/05:37am 12.9 7.1 11.5 91 0.7 WNW 33 50 18 27 1008.7 1008.7 1.0
20/05:31am 13.0 7.8 11.6 91 0.7 WNW 30 43 16 23 1008.7 1008.7 1.0
20/05:30am 13.0 8.2 11.6 91 0.7 WNW 28 39 15 21 1008.7 1008.7 1.0
20/05:19am 12.9 9.6 11.6 92 0.7 NW 20 33 11 18 1008.8 1008.8 1.0
20/05:17am 13.0 9.9 11.7 92 0.7 NW 19 33 10 18 1008.9 1008.9 0.8
20/05:02am 13.0 8.1 11.4 90 0.8 NW 28 35 15 19 1009.0 1009.0 0.8
20/05:00am 13.1 8.6 11.3 89 1.0 NW 26 35 14 19 1009.0 1009.0 0.8
20/04:30am 13.6 10.7 9.6 77 2.0 NNW 15 30 8 16 1009.2 1009.2 0.8
20/04:00am 14.0 9.0 9.4 74 2.4 NW 26 35 14 19 1009.3 1009.3 0.8
20/03:30am 14.3 8.5 8.0 66 3.1 NW 28 43 15 23 1009.6 1009.6 0.8
20/03:00am 13.8 10.1 9.3 74 2.3 NW 19 26 10 14 1009.7 1009.7 0.8
20/02:30am 13.9 9.2 9.3 74 2.3 NW 24 33 13 18 1010.1 1010.1 0.8
20/02:00am 13.9 9.2 7.7 66 3.1 NW 22 32 12 17 1010.3 1010.3 0.8
20/01:30am 13.9 9.5 7.2 64 3.3 NW 20 28 11 15 1010.9 1010.9 0.8
20/01:00am 13.9 8.3 7.2 64 3.3 WNW 26 35 14 19 1010.9 1010.9 0.8
20/12:30am 13.9 9.0 8.5 70 2.7 NW 24 32 13 17 1011.1 1011.1 0.8
20/12:00am 13.4 8.7 7.6 68 2.8 NW 22 32 12 17 1011.3 1011.3 0.8
 
Date/Time
EDT
Temp
°C
App
Temp
°C
Dew
Point
°C
Rel
Hum
%
Delta-T
°C
Wind Press
QNH
hPa
Press
MSL
hPa
Rain since
9am
mm
Dir  Spd
km/h
Gust
km/h
Spd
kts
Gust
kts
19/11:30pm 13.3 9.2 8.6 73 2.4 NW 20 32 11 17 1011.4 1011.4 0.8
19/11:00pm 11.8 9.7 9.7 87 1.1 NNE 11 15 6 8 1011.5 1011.5 0.8
19/10:30pm 11.7 10.0 9.8 88 1.0 NNE 9 13 5 7 1011.5 1011.5 0.6
19/10:00pm 11.9 10.1 9.6 86 1.2 NNE 9 11 5 6 1011.6 1011.6 0.6
19/09:30pm 11.8 9.8 8.8 82 1.5 NW 9 9 5 5 1011.5 1011.5 0.6
19/09:00pm 12.2 10.0 9.2 82 1.5 NW 11 17 6 9 1011.5 1011.5 0.6
19/08:30pm 12.4 10.8 10.3 87 1.1 WNW 9 11 5 6 1011.3 1011.3 0.6
19/08:00pm 12.3 9.1 10.0 86 1.2 W 17 24 9 13 1011.0 1011.0 0.6
19/07:30pm 13.9 11.2 9.1 73 2.4 NW 13 17 7 9 1010.6 1010.6 0.6
19/07:00pm 14.3 12.0 9.1 71 2.7 WNW 11 15 6 8 1010.5 1010.5 0.6
19/06:30pm 14.3 11.2 8.9 70 2.7 WNW 15 19 8 10 1010.5 1010.5 0.6
19/06:00pm 15.2 11.7 8.9 66 3.2 W 17 20 9 11 1010.4 1010.4 0.6
19/05:30pm 15.9 12.6 9.6 66 3.3 WSW 17 22 9 12 1010.3 1010.3 0.6
19/05:00pm 14.3 10.1 11.1 81 1.7 WSW 24 33 13 18 1010.3 1010.3 0.6
19/04:48pm 14.4 9.7 11.9 85 1.3 WSW 28 37 15 20 1010.2 1010.2 0.6
19/04:30pm 13.5 9.9 10.5 82 1.6 W 20 35 11 19 1010.0 1010.0 0.4
19/04:00pm 15.9 11.2 9.3 65 3.4 NW 24 35 13 19 1010.0 1010.0 0.2
19/03:30pm 14.7 10.2 9.9 73 2.5 W 24 32 13 17 1010.2 1010.2 0.2
19/03:16pm 14.3 9.5 11.6 84 1.4 WSW 28 39 15 21 1010.4 1010.4 0.2
19/03:02pm 13.6 7.9 11.3 86 1.2 WSW 32 44 17 24 1010.5 1010.5 0.2
19/03:00pm 13.7 7.8 11.2 85 1.3 WSW 33 44 18 24 1010.5 1010.5 0.2
19/02:30pm 15.3 11.1 8.3 63 3.5 WNW 20 28 11 15 1010.2 1010.2 0.2
19/02:00pm 17.0 12.7 9.2 60 4.1 WNW 22 30 12 16 1009.9 1009.9 0.2
19/01:30pm 16.4 10.8 8.6 60 4.0 W 28 39 15 21 1009.8 1009.8 0.0
19/01:00pm 15.9 11.1 7.4 57 4.2 W 22 30 12 16 1009.7 1009.7 0.0
19/12:30pm 15.5 10.4 6.2 54 4.5 WNW 22 33 12 18 1009.7 1009.7 0.0
19/12:00pm 16.4 11.2 7.1 54 4.6 W 24 32 13 17 1009.6 1009.6 0.0
19/11:30am 15.8 10.4 6.3 53 4.6 W 24 33 13 18 1009.4 1009.4 0.0
19/11:00am 15.2 9.8 6.2 55 4.4 W 24 32 13 17 1009.2 1009.2 0.0
19/10:30am 14.2 8.1 6.8 61 3.6 W 28 37 15 20 1008.9 1008.9 0.0
19/10:00am 13.5 9.0 8.6 72 2.5 WNW 22 32 12 17 1008.6 1008.6 0.0
19/09:30am 13.1 7.6 7.5 69 2.7 WSW 26 35 14 19 1008.6 1008.6 0.0
19/09:00am 13.0 7.9 9.3 78 1.9 W 26 41 14 22 1008.1 1008.1 4.0
19/08:30am 13.2 8.7 6.3 63 3.3 WNW 19 26 10 14 1007.8 1007.8 4.0
19/08:00am 13.1 8.5 6.7 65 3.1 WSW 20 30 11 16 1007.6 1007.6 4.0
19/07:30am 12.5 7.7 7.4 71 2.5 WSW 22 44 12 24 1007.6 1007.6 4.0
19/07:00am 12.7 6.0 5.4 61 3.4 W 30 52 16 28 1007.3 1007.3 4.0
19/06:57am 12.8 5.5 5.5 61 3.4 W 33 52 18 28 1007.3 1007.3 4.0
19/06:46am 12.8 5.2 5.9 63 3.3 W 35 50 19 27 1007.2 1007.2 4.0
19/06:30am 13.0 8.0 6.4 64 3.1 W 22 32 12 17 1007.0 1007.0 4.0
19/06:00am 12.9 7.0 7.6 70 2.6 W 28 39 15 21 1006.8 1006.8 4.0
19/05:30am 12.8 7.3 7.5 70 2.6 WNW 26 39 14 21 1006.6 1006.6 4.0
19/05:00am 12.4 7.6 7.3 71 2.5 WNW 22 32 12 17 1006.6 1006.6 4.0
19/04:30am 12.8 6.7 8.3 74 2.2 W 30 50 16 27 1006.5 1006.5 4.0
19/04:28am 13.0 7.3 8.3 73 2.3 W 28 44 15 24 1006.5 1006.5 4.0
19/04:00am 11.8 8.0 7.7 76 2.0 W 17 26 9 14 1006.5 1006.5 4.0
19/03:30am 12.5 6.3 9.3 81 1.6 W 32 44 17 24 1006.7 1006.7 4.0
19/03:00am 12.8 6.5 5.5 61 3.4 W 28 37 15 20 1006.4 1006.4 4.0
19/02:30am 12.9 7.4 7.4 69 2.7 W 26 35 14 19 1006.8 1006.8 4.0
19/02:00am 12.7 6.8 5.6 62 3.3 WNW 26 39 14 21 1006.8 1006.8 4.0
19/01:30am 12.7 7.3 6.3 65 3.0 WNW 24 37 13 20 1006.8 1006.8 4.0
19/01:00am 12.2 8.9 8.1 76 2.0 WNW 15 20 8 11 1006.9 1006.9 4.0
19/12:30am 12.7 7.6 7.8 72 2.4 WNW 24 35 13 19 1006.9 1006.9 4.0
19/12:00am 12.7 7.2 5.8 63 3.3 WNW 24 33 13 18 1006.9 1006.9 4.0
 
Date/Time
EDT
Temp
°C
App
Temp
°C
Dew
Point
°C
Rel
Hum
%
Delta-T
°C
Wind Press
QNH
hPa
Press
MSL
hPa
Rain since
9am
mm
Dir  Spd
km/h
Gust
km/h
Spd
kts
Gust
kts
18/11:30pm 12.1 7.0 5.9 66 2.9 W 22 30 12 16 1006.9 1006.9 4.0
18/11:00pm 12.5 7.1 6.5 67 2.9 W 24 33 13 18 1006.5 1006.5 4.0
18/10:30pm 13.0 8.4 8.1 72 2.4 W 22 41 12 22 1006.6 1006.6 4.0
18/10:00pm 12.7 7.3 6.5 66 3.0 W 24 33 13 18 1006.4 1006.4 4.0
18/09:30pm 12.7 7.0 6.7 67 2.9 W 26 35 14 19 1006.1 1006.1 4.0
18/09:00pm 12.1 5.8 5.5 64 3.1 W 28 37 15 20 1005.5 1005.5 4.0
18/08:30pm 12.5 7.0 9.0 79 1.8 W 28 41 15 22 1005.1 1005.1 3.8
18/08:00pm 12.8 7.2 8.7 76 2.1 W 28 43 15 23 1004.6 1004.6 3.8
18/07:30pm 12.6 6.4 10.0 84 1.3 WSW 33 48 18 26 1004.3 1004.3 3.6
18/07:00pm 14.0 8.2 9.6 75 2.3 WNW 30 46 16 25 1003.6 1003.6 3.6
18/06:55pm 14.0 8.6 9.4 74 2.4 WNW 28 46 15 25 1003.5 1003.5 3.6
18/06:30pm 14.0 8.6 9.4 74 2.4 WNW 28 43 15 23 1003.3 1003.3 3.6
18/06:14pm 14.0 7.9 9.8 76 2.2 WNW 32 54 17 29 1003.3 1003.3 3.6
18/06:00pm 14.1 7.8 9.7 75 2.3 W 33 48 18 26 1003.2 1003.2 3.6
18/05:36pm 13.3 7.4 10.3 82 1.6 WNW 32 44 17 24 1003.0 1003.0 3.6
18/05:30pm 12.9 7.7 10.1 83 1.4 WNW 28 44 15 24 1003.0 1003.0 3.6
18/05:20pm 12.8 7.4 10.9 88 1.0 WNW 30 48 16 26 1003.0 1003.0 3.4
18/05:13pm 13.2 6.7 10.4 83 1.5 WNW 35 48 19 26 1003.1 1003.1 1.6
18/05:00pm 14.8 8.3 10.2 74 2.4 WNW 35 48 19 26 1002.9 1002.9 0.6
18/04:30pm 15.2 8.8 9.3 68 3.0 WNW 33 46 18 25 1003.1 1003.1 0.6
18/04:00pm 15.4 9.0 9.5 68 3.1 WNW 33 46 18 25 1003.1 1003.1 0.6
18/03:30pm 14.0 5.9 10.0 77 2.1 WNW 43 61 23 33 1003.0 1003.0 0.6
18/03:00pm 15.7 9.0 11.1 74 2.5 WNW 37 50 20 27 1003.0 1003.0 0.4
18/02:30pm 15.2 7.6 8.9 66 3.2 WNW 39 50 21 27 1003.0 1003.0 0.4
18/02:00pm 16.7 9.2 9.6 63 3.7 NW 39 52 21 28 1002.8 1002.8 0.4
18/01:30pm 16.0 9.6 10.7 71 2.8 NW 35 48 19 26 1002.8 1002.8 0.4
18/01:00pm 14.4 8.1 11.2 81 1.7 NW 35 63 19 34 1002.9 1002.9 0.4
18/12:30pm 17.4 10.6 10.5 64 3.7 NW 37 52 20 28 1002.8 1002.8 0.2
18/12:00pm 17.9 11.6 9.8 59 4.3 NW 33 44 18 24 1002.9 1002.9 0.2
18/11:30am 16.6 11.4 11.5 72 2.8 NNW 30 39 16 21 1003.3 1003.3 0.2
18/11:07am 14.6 8.1 10.2 75 2.3 WNW 35 54 19 29 1003.5 1003.5 0.2
18/11:00am 15.4 8.3 9.7 69 3.0 NW 37 50 20 27 1003.5 1003.5 0.2
18/10:52am 15.5 9.1 8.7 64 3.5 NW 32 50 17 27 1003.4 1003.4 0.2
18/10:30am 17.1 10.8 9.8 62 3.8 NW 33 50 18 27 1003.3 1003.3 0.2
18/10:11am 15.4 8.9 9.1 66 3.2 NW 33 52 18 28 1003.3 1003.3 0.2
18/10:00am 15.4 9.0 9.3 67 3.2 NW 33 43 18 23 1003.3 1003.3 0.2
18/09:30am 14.5 9.8 10.7 78 2.0 NW 26 41 14 22 1003.3 1003.3 0.2
18/09:00am 14.7 9.2 12.4 86 1.3 WNW 33 44 18 24 1003.3 1003.3 6.4
18/08:45am 14.8 8.7 11.6 81 1.7 WNW 35 48 19 26 1003.2 1003.2 6.4
18/08:30am 15.3 10.0 11.3 77 2.1 NNW 30 41 16 22 1003.1 1003.1 6.4
18/08:00am 14.9 11.2 11.5 80 1.8 NNW 22 32 12 17 1003.1 1003.1 6.4
18/07:30am 14.6 9.8 11.6 82 1.6 NNW 28 39 15 21 1003.2 1003.2 6.4
18/07:00am 14.4 9.3 11.9 85 1.4 NW 30 43 16 23 1003.1 1003.1 6.4
18/06:30am 14.3 10.6 12.7 90 0.9 NW 24 33 13 18 1002.9 1002.9 6.4
18/06:22am 14.2 10.5 12.8 91 0.8 NW 24 33 13 18 1002.8 1002.8 6.4
18/06:12am 14.2 10.6 12.9 92 0.7 NW 24 35 13 19 1002.7 1002.7 6.4
18/06:11am 14.2 10.2 12.9 92 0.7 NW 26 35 14 19 1002.8 1002.8 6.4
18/06:00am 14.1 10.0 12.8 92 0.7 NW 26 37 14 20 1002.6 1002.6 6.4
18/05:30am 14.2 9.9 13.1 93 0.6 WNW 28 35 15 19 1002.4 1002.4 6.2
18/05:16am 14.2 10.6 13.2 94 0.6 WNW 24 33 13 18 1002.5 1002.5 6.0
18/05:00am 14.6 11.6 13.8 95 0.5 W 22 33 12 18 1002.5 1002.5 5.8
18/04:30am 15.3 12.6 14.5 95 0.5 NW 22 28 12 15 1002.6 1002.6 4.0
18/04:06am 15.2 12.3 14.1 93 0.6 NW 22 30 12 16 1002.7 1002.7 3.0
18/04:02am 15.2 11.9 14.1 93 0.6 NW 24 32 13 17 1002.7 1002.7 3.0
18/04:00am 15.2 11.9 14.1 93 0.6 NW 24 32 13 17 1002.7 1002.7 3.0
18/03:43am 15.2 11.4 13.7 91 0.8 NW 26 37 14 20 1003.0 1003.0 2.6
18/03:30am 15.3 11.9 13.8 91 0.8 NW 24 41 13 22 1003.1 1003.1 2.4
18/03:24am 15.6 12.3 14.1 91 0.8 NW 24 33 13 18 1003.0 1003.0 2.4
18/03:00am 16.0 13.7 14.0 88 1.1 N 19 24 10 13 1003.1 1003.1 2.2
18/02:30am 16.0 13.7 14.0 88 1.1 N 19 24 10 13 1003.3 1003.3 2.0
18/02:00am 15.9 14.4 14.1 89 1.0 N 15 20 8 11 1004.0 1004.0 2.0
18/01:30am 15.8 13.9 14.2 90 0.9 N 17 22 9 12 1004.4 1004.4 2.0
18/01:00am 15.8 13.9 14.3 91 0.9 N 17 24 9 13 1004.7 1004.7 2.0
18/12:30am 15.8 14.0 14.5 92 0.7 N 17 20 9 11 1005.3 1005.3 2.0
18/12:00am 15.8 14.0 14.5 92 0.7 N 17 20 9 11 1005.5 1005.5 2.0
 
Date/Time
EDT
Temp
°C
App
Temp
°C
Dew
Point
°C
Rel
Hum
%
Delta-T
°C
Wind Press
QNH
hPa
Press
MSL
hPa
Rain since
9am
mm
Dir  Spd
km/h
Gust
km/h
Spd
kts
Gust
kts
17/11:30pm 15.7 14.3 14.4 92 0.7 N 15 20 8 11 1005.7 1005.7 2.0
17/11:00pm 15.8 14.0 14.5 92 0.7 N 17 20 9 11 1006.3 1006.3 2.0
17/10:30pm 16.0 14.0 14.9 93 0.6 N 19 28 10 15 1006.7 1006.7 1.8
17/10:00pm 16.2 14.1 14.7 91 0.9 N 19 24 10 13 1006.8 1006.8 1.2
17/09:30pm 16.3 14.1 14.8 91 0.9 NNW 20 28 11 15 1006.8 1006.8 0.8
17/09:00pm 16.6 14.0 15.0 90 0.9 NNW 22 32 12 17 1006.9 1006.9 0.6
17/08:30pm 17.1 14.0 14.4 84 1.5 NNW 24 35 13 19 1006.8 1006.8 0.4
17/08:00pm 17.2 13.7 14.5 84 1.6 NNW 26 35 14 19 1006.8 1006.8 0.4
17/07:30pm 17.3 13.4 14.4 83 1.7 NNW 28 39 15 21 1006.9 1006.9 0.4
17/07:00pm 17.6 13.9 14.9 84 1.6 NNW 28 35 15 19 1006.9 1006.9 0.4
17/06:50pm 17.5 13.7 14.6 83 1.7 NNW 28 39 15 21 1007.0 1007.0 0.4
17/06:30pm 17.4 13.6 14.7 84 1.6 NNW 28 39 15 21 1007.3 1007.3 0.4
17/06:11pm 17.4 13.7 15.0 86 1.4 NW 28 35 15 19 1007.4 1007.4 0.4
17/06:00pm 17.6 13.1 14.9 84 1.6 NNW 32 44 17 24 1007.5 1007.5 0.4
17/05:30pm 18.1 13.2 14.4 79 2.1 NW 33 44 18 24 1007.4 1007.4 0.4
17/05:00pm 18.1 13.4 14.4 79 2.1 NW 32 46 17 25 1007.4 1007.4 0.4
17/04:30pm 17.9 13.1 14.0 78 2.2 NW 32 46 17 25 1007.6 1007.6 0.4
17/04:00pm 18.1 13.8 14.4 79 2.1 NW 30 37 16 20 1007.8 1007.8 0.4
17/03:30pm 18.4 15.3 14.5 78 2.3 NNW 24 33 13 18 1008.1 1008.1 0.4
17/03:00pm 17.9 17.2 15.5 86 1.4 N 13 17 7 9 1008.4 1008.4 0.4
17/02:30pm 16.5 15.8 14.3 87 1.3 NNW 11 15 6 8 1008.7 1008.7 0.4
17/02:00pm 16.7 15.2 14.3 86 1.4 N 15 20 8 11 1008.9 1008.9 0.2
17/01:30pm 17.0 15.1 13.1 78 2.2 N 15 20 8 11 1009.0 1009.0 0.0
17/01:00pm 17.7 15.4 13.0 74 2.6 N 17 24 9 13 1009.8 1009.8 0.0
17/12:30pm 17.0 13.3 12.7 76 2.4 NNW 24 35 13 19 1010.6 1010.6 0.0
17/12:00pm 17.0 13.2 12.5 75 2.5 NNW 24 30 13 16 1011.0 1011.0 0.0
17/11:30am 16.2 12.3 12.0 76 2.3 NNW 24 32 13 17 1011.4 1011.4 0.0
17/11:00am 16.8 13.2 11.7 72 2.8 NNW 22 28 12 15 1011.4 1011.4 0.0

Other formats

Comma delimited format used in spreadsheet applications
http://www.bom.gov.au/fwo/IDT60801/IDT60801.94956.axf

JavaScript Object Notation format (JSON) in row-major order
http://www.bom.gov.au/fwo/IDT60801/IDT60801.94956.json

Data quality

Most of these data are generated automatically and are frequently updated. Quality checks on data are not normally performed. It is possible for incorrect values to appear. Refer to information at About Latest Weather Observations and please check the disclaimer before using these data.